Latest Coastal Weather Observations for Mackay

IDQ60701

Issued at 8:42 pm EST Sunday 21 December 2014 (issued every 10 minutes, with the page automatically refreshed every 10 minutes)

About coastal observations | Map of coastal stations | Coastal observations for QLD | Marine services | Other Formats
Station Details ID: 033119 Name: MACKAY M.O Lat: -21.12 Lon: 149.22 Height: 30.26 m
Data from the previous 72 hours. | See also: Recent months at Mackay
Date/Time
EST
Temp

°C
Wind Pressure Rain
since 9am
mm
Weather Cloud Vis
km
Sea
Height
m
Swell
Dir
 
Speed
knots
Gust
knots
hPa Trend Height
m
Period
s
Dir
21/08:30pm 26.8 E 10 17 1013.7 - 0.0 - Partly cloudy - - - - -
21/08:00pm 26.7 E 9 15 1013.6 - 0.0 - Partly cloudy - - - - -
21/07:30pm 26.9 E 9 14 1013.6 - 0.0 - Partly cloudy - - - - -
21/07:00pm 26.9 E 10 15 1013.2 - 0.0 - Partly cloudy - - - - -
21/06:30pm 27.0 E 9 15 1012.9 - 0.0 - Partly cloudy - - - - -
21/06:00pm 27.6 ESE 8 13 1012.7 F 0.0 - Mostly clear - - - - -
21/05:30pm 28.4 ESE 7 15 1012.4 - 0.0 - Partly cloudy - - - - -
21/05:00pm 28.4 E 9 15 1012.2 - 0.0 - Mostly clear 10 - - - -
21/04:30pm 28.2 ESE 8 13 1012.3 - 0.0 - Partly cloudy 10 - - - -
21/04:00pm 28.9 ESE 9 14 1012.3 - 0.0 - Partly cloudy 10 - - - -
21/03:30pm 28.9 ESE 10 14 1012.3 - 0.0 - Partly cloudy 10 - - - -
21/03:00pm 29.4 ESE 11 16 1012.6 R 0.0 Fine Partly cloudy 25 - - - -
21/02:30pm 28.9 ESE 8 13 1012.9 - 0.0 - Partly cloudy 10 - - - -
21/02:00pm 29.6 ESE 8 14 1013.2 - 0.0 - Partly cloudy 10 - - - -
21/01:30pm 29.3 ESE 8 13 1013.6 - 0.0 - Partly cloudy 10 - - - -
21/01:00pm 29.4 ESE 8 14 1013.9 - 0.0 - Partly cloudy 10 - - - -
21/12:30pm 29.3 ESE 8 11 1014.0 - 0.0 - Partly cloudy 10 - - - -
21/12:00pm 30.4 ESE 7 11 1014.2 R 0.0 Fine Partly cloudy 25 - - - -
21/11:30am 30.1 ESE 8 12 1014.4 - 0.0 - Partly cloudy 10 - - - -
21/11:00am 29.5 E 7 11 1014.4 - 0.0 - Partly cloudy 10 - - - -
21/10:30am 29.8 E 8 11 1014.4 - 0.0 - Partly cloudy 10 - - - -
21/10:00am 30.2 E 8 12 1014.4 - 0.0 - Partly cloudy 10 - - - -
21/09:30am 29.8 ENE 7 11 1014.4 - 0.0 - Partly cloudy 10 - - - -
21/09:00am 29.9 ENE 8 13 1014.2 R 0.0 Fine Partly cloudy 25 - - - -
21/08:30am 28.9 ENE 9 13 1014.1 - 0.0 - Partly cloudy - - - - -
21/08:00am 28.8 ENE 7 11 1014.0 - 0.0 - Mostly clear 10 - - - -
21/07:30am 27.2 ENE 9 13 1013.8 - 0.0 - Partly cloudy 10 - - - -
21/07:00am 27.3 E 9 12 1013.6 - 0.0 - Partly cloudy 10 - - - -
21/06:30am 27.1 E 9 15 1013.1 - 0.0 - Mostly clear 10 - - - -
21/06:00am 26.7 ESE 7 12 1012.7 R 0.0 Fine Partly cloudy 25 - - - -
21/05:30am 26.1 E 8 12 1012.3 - 0.0 - Partly cloudy - - - - -
21/05:00am 26.2 E 7 11 1011.9 - 0.0 - Partly cloudy - - - - -
21/04:30am 26.1 E 8 11 1011.5 - 0.0 - Partly cloudy - - - - -
21/04:00am 26.0 ENE 7 11 1011.3 - 0.0 - - - - - - -
21/03:30am 25.7 ENE 8 11 1011.2 - 0.0 - - - - - - -
21/03:00am 25.8 ENE 8 11 1011.5 - 0.0 - Mostly clear - - - - -
21/02:30am 25.7 ENE 7 10 1011.7 - 0.0 - - - - - - -
21/02:00am 25.9 E 8 12 1011.8 - 0.0 - Partly cloudy - - - - -
21/01:30am 25.9 ENE 7 12 1012.0 - 0.0 - Partly cloudy - - - - -
21/01:00am 26.1 E 9 12 1012.2 - 0.0 - Partly cloudy - - - - -
21/12:30am 26.3 ENE 7 12 1012.6 - 0.0 - Partly cloudy - - - - -
21/12:00am 26.3 E 7 11 1012.8 - 0.0 - Partly cloudy - - - - -
 
Date/Time
EST
Temp

°C
Wind Pressure Rain
since 9am
mm
Weather Cloud Vis
km
Sea
Height
m
Swell
Dir
 
Speed
knots
Gust
knots
hPa Trend Height
m
Period
s
Dir
20/11:30pm 26.2 E 10 13 1013.1 - 0.0 - - - - - - -
20/11:00pm 26.4 E 7 12 1013.2 - 0.0 - Partly cloudy - - - - -
20/10:30pm 26.4 ESE 7 11 1013.3 - 0.0 - Partly cloudy - - - - -
20/10:00pm 26.4 E 8 15 1013.3 - 0.0 - Partly cloudy - - - - -
20/09:30pm 26.6 ESE 8 12 1013.4 - 0.0 - Partly cloudy - - - - -
20/09:00pm 26.6 ESE 6 11 1013.2 R 0.0 - - - - - - -
20/08:30pm 26.6 E 8 14 1013.0 - 0.0 - Partly cloudy - - - - -
20/08:00pm 26.6 E 9 15 1012.5 - 0.0 - Partly cloudy - - - - -
20/07:30pm 26.8 ESE 8 14 1012.0 - 0.0 - Partly cloudy - - - - -
20/07:00pm 26.9 ESE 8 12 1011.8 - 0.0 - Partly cloudy - - - - -
20/06:30pm 27.2 ESE 8 11 1011.4 - 0.0 - - - - - - -
20/06:00pm 27.5 ESE 9 13 1010.9 R 0.0 - Mostly clear - - - - -
20/05:30pm 28.3 SE 8 13 1010.3 - 0.0 - Partly cloudy - - - - -
20/05:00pm 28.4 ESE 8 13 1010.2 - 0.0 - Partly cloudy 10 - - - -
20/04:30pm 28.6 ESE 8 13 1010.0 - 0.0 - Partly cloudy 10 - - - -
20/04:00pm 29.3 ESE 7 11 1010.0 - 0.0 - Partly cloudy 10 - - - -
20/03:30pm 29.9 ESE 8 13 1010.1 - 0.0 - Partly cloudy 10 - - - -
20/03:00pm 30.0 ESE 7 13 1010.3 R 0.0 Fine Mostly cloudy 25 - - - -
20/02:30pm 30.1 ESE 9 13 1010.6 - 0.0 - Mostly clear 10 - - - -
20/02:00pm 30.2 ESE 8 14 1011.0 - 0.0 - Partly cloudy 10 - - - -
20/01:30pm 29.7 E 7 12 1011.1 - 0.0 - Mostly clear 10 - - - -
20/01:00pm 30.1 ESE 7 9 1011.1 - 0.0 - Mostly clear 10 - - - -
20/12:30pm 29.7 ESE 6 10 1011.2 - 0.0 - Mostly clear 10 - - - -
20/12:00pm 30.2 ESE 6 9 1011.9 R 0.0 Fine Mostly clear 25 - - - -
20/11:30am 29.4 E 7 10 1012.3 - 0.0 - Mostly clear 10 - - - -
20/11:00am 28.6 E 6 9 1012.5 - 0.0 - Mostly clear 10 - - - -
20/10:30am 29.5 SE 6 9 1012.7 - 0.0 - - 10 - - - -
20/10:00am 29.2 ESE 5 7 1012.5 - 0.0 - Partly cloudy 10 - - - -
20/09:30am 29.0 ESE 5 8 1012.6 - 0.0 - Partly cloudy 10 - - - -
20/09:00am 28.2 SE 5 8 1012.6 S 1.0 Haze Partly cloudy 20 - - - -
20/08:52am 28.8 SE 5 8 1012.5 - 0.8 - Partly cloudy - - - - -
20/08:30am 27.4 SE 5 8 1012.5 - 0.8 - Partly cloudy 10 - - - -
20/08:00am 27.4 SSE 6 8 1012.4 - 0.8 - Partly cloudy 10 - - - -
20/07:30am 26.6 S 6 9 1012.3 - 0.8 - Mostly clear 10 - - - -
20/07:00am 26.0 S 6 9 1012.0 - 0.8 - Mostly clear 10 - - - -
20/06:30am 24.6 SSW 5 6 1011.8 - 0.8 - Mostly clear 10 - - - -
20/06:00am 23.7 SSW 5 7 1011.5 F 0.8 Haze Mostly clear 20 - - - -
20/05:30am 23.5 SSW 6 7 1011.1 - 0.8 - - - - - - -
20/05:00am 23.5 SSW 5 6 1010.6 - 0.8 - Partly cloudy - - - - -
20/04:30am 23.7 SW 5 6 1010.4 - 0.8 - - - - - - -
20/04:00am 23.9 SW 5 7 1010.3 - 0.8 - Partly cloudy - - - - -
20/03:30am 23.9 S 5 6 1010.4 - 0.8 - Partly cloudy - - - - -
20/03:00am 24.3 SSE 4 6 1010.5 - 0.8 - Cloudy - - - - -
20/02:30am 24.3 SE 5 9 1010.6 - 0.8 - Partly cloudy - - - - -
20/02:00am 24.3 SE 8 11 1010.8 - 0.8 - Partly cloudy - - - - -
20/01:30am 24.1 SE 9 16 1011.0 - 0.6 - Partly cloudy - - - - -
20/01:00am 26.2 W 3 4 1011.2 - 0.0 - Partly cloudy - - - - -
20/12:30am 25.9 NW 3 4 1011.5 - 0.0 - Partly cloudy - - - - -
20/12:00am 26.1 NNW 4 4 1011.6 - 0.0 - Mostly clear - - - - -
 
Date/Time
EST
Temp

°C
Wind Pressure Rain
since 9am
mm
Weather Cloud Vis
km
Sea
Height
m
Swell
Dir
 
Speed
knots
Gust
knots
hPa Trend Height
m
Period
s
Dir
19/11:30pm 26.2 CALM 0 3 1011.8 - 0.0 - Partly cloudy - - - - -
19/11:00pm 26.3 N 3 4 1012.2 - 0.0 - - - - - - -
19/10:30pm 26.5 N 4 6 1012.2 - 0.0 - Partly cloudy - - - - -
19/10:00pm 26.5 N 4 5 1012.2 - 0.0 - Partly cloudy - - - - -
19/09:30pm 26.7 N 2 4 1012.2 - 0.0 - Partly cloudy - - - - -
19/09:00pm 26.8 N 5 7 1011.9 R 0.0 - Mostly clear - - - - -
19/08:30pm 27.0 N 5 7 1011.8 - 0.0 - Partly cloudy - - - - -
19/08:00pm 27.0 N 5 7 1011.6 - 0.0 - Partly cloudy - - - - -
19/07:30pm 27.0 N 4 6 1011.2 - 0.0 - Partly cloudy - - - - -
19/07:00pm 27.2 N 5 7 1010.7 - 0.0 - - - - - - -
19/06:30pm 27.7 NNE 5 8 1010.4 - 0.0 - - - - - - -
19/06:00pm 28.4 NNE 5 7 1010.1 R 0.0 - Mostly clear - - - - -
19/05:30pm 28.7 N 6 9 1009.8 - 0.0 - - - - - - -
19/05:00pm 29.8 NNE 6 10 1009.5 - 0.0 - Mostly clear 10 - - - -
19/04:30pm 30.0 NNE 6 10 1009.5 - 0.0 - Mostly clear 10 - - - -
19/04:00pm 30.2 NNE 6 10 1009.5 - 0.0 - Mostly clear 10 - - - -
19/03:30pm 30.1 NNE 6 9 1009.7 - 0.0 - Mostly clear 10 - - - -
19/03:00pm 30.4 NNE 6 12 1009.8 R 0.0 Haze Mostly cloudy 18 - - - -
19/02:30pm 30.2 NNE 6 11 1009.9 - 0.0 - Mostly clear 10 - - - -
19/02:00pm 30.5 NNE 7 10 1010.3 - 0.0 - Mostly clear 10 - - - -
19/01:30pm 30.9 NNE 6 9 1010.8 - 0.0 - Mostly clear 10 - - - -
19/01:00pm 31.2 NE 7 10 1011.0 - 0.0 - Partly cloudy 10 - - - -
19/12:30pm 32.1 NE 5 8 1011.1 - 0.0 - Partly cloudy 10 - - - -
19/12:00pm 29.6 ENE 6 9 1011.5 R 0.0 Haze Mostly cloudy 18 - - - -
19/11:30am 29.8 ENE 6 10 1011.7 - 0.0 - Partly cloudy 10 - - - -
19/11:00am 28.6 E 5 8 1012.0 - 0.0 - Partly cloudy 10 - - - -
19/10:30am 28.5 E 5 8 1011.9 - 0.0 - Partly cloudy 10 - - - -
19/10:00am 28.4 E 5 7 1011.8 - 0.0 - Partly cloudy 10 - - - -
19/09:30am 28.4 ESE 5 7 1011.7 - 0.0 - Partly cloudy 10 - - - -
19/09:00am 29.6 SSW 4 8 1011.7 R 0.0 Haze Mostly cloudy 18 - - - -
19/08:30am 28.0 SSW 5 7 1011.8 - 0.0 - Partly cloudy 10 - - - -
19/08:00am 27.0 SSW 4 6 1011.5 - 0.0 - Mostly clear 10 - - - -
19/07:30am 26.4 SW 4 5 1011.2 - 0.0 - Mostly clear 10 - - - -
19/07:00am 26.1 WSW 3 5 1010.9 - 0.0 - Mostly clear 10 - - - -
19/06:30am 25.3 SW 3 4 1010.5 - 0.0 - Mostly clear 10 - - - -
19/06:00am 24.9 WSW 4 6 1010.3 F 0.0 Haze Mostly cloudy 15 - - - -
19/05:30am 24.7 WSW 4 5 1010.1 - 0.0 - - - - - - -
19/05:00am 25.1 WSW 4 5 1009.9 - 0.0 - - - - - - -
19/04:30am 25.1 W 4 5 1009.9 - 0.0 - - - - - - -
19/04:00am 24.8 WNW 4 5 1009.9 - 0.0 - - - - - - -
19/03:30am 24.9 WNW 5 6 1010.0 - 0.0 - - - - - - -
19/03:00am 24.8 NW 5 6 1010.1 - 0.0 - - - - - - -
19/02:30am 24.9 NNW 5 6 1010.3 - 0.0 - - - - - - -
19/02:00am 25.1 NW 6 7 1010.7 - 0.0 - - - - - - -
19/01:30am 25.3 NNW 6 9 1011.1 - 0.0 - - - - - - -
19/01:00am 25.5 NNW 7 10 1011.4 - 0.0 - - - - - - -
19/12:30am 25.6 NNW 7 10 1011.7 - 0.0 - - - - - - -
19/12:00am 25.9 NW 4 7 1012.1 - 0.0 - - - - - - -
 
Date/Time
EST
Temp

°C
Wind Pressure Rain
since 9am
mm
Weather Cloud Vis
km
Sea
Height
m
Swell
Dir
 
Speed
knots
Gust
knots
hPa Trend Height
m
Period
s
Dir
18/11:30pm 26.3 WNW 6 11 1012.1 - 0.0 - - - - - - -
18/11:00pm 26.8 NW 8 13 1012.3 - 0.0 - - - - - - -
18/10:30pm 26.8 NNW 10 17 1011.5 - 0.0 - - - - - - -
18/10:00pm 26.5 NNW 10 13 1011.5 - 0.0 - - - - - - -
18/09:30pm 26.7 NNW 10 15 1011.5 - 0.0 - - - - - - -
18/09:00pm 26.8 N 10 15 1011.4 R 0.0 - - - - - - -

Other Formats:

Comma delimited format used in spreadsheet applications
http://www.bom.gov.au/fwo/IDQ60701/IDQ60701.94367.axf

JavaScript Object Notation format (JSON) in row-major order
http://www.bom.gov.au/fwo/IDQ60701/IDQ60701.94367.json